Time;durP1;ratioP1;P1;durP2;ratioP2;P2;SDS_P1;SDS_P2;PMS_P1;PMS_P2;Temp;Humidity;BMP_temperature;BMP_pressure;BME280_temperature;BME280_humidity;BME280_pressure;Samples;Min_cycle;Max_cycle;Signal;HPM_P1;HPM_P2
2023/10/07 00:00:28;;;;;;;;;;;13.20;99.90;;;;;;2618018;47;20105;-71
2023/10/07 00:02:59;;;;;;;;;;;13.20;99.90;;;;;;2617681;39;20515;-71
2023/10/07 00:05:32;;;;;;;;;;;13.10;99.90;;;;;;2618014;47;20037;-73
2023/10/07 00:08:08;;;;;;;;;;;13.10;99.90;;;;;;2617189;54;20454;-70
2023/10/07 00:10:43;;;;;;;;;;;13.10;99.90;;;;;;2617822;54;20030;-71
2023/10/07 00:13:13;;;;;;;;;;;13.10;99.90;;;;;;2618321;54;19945;-72
2023/10/07 00:15:47;;;;;;;;;;;13.10;99.90;;;;;;2618135;54;19947;-72
2023/10/07 00:18:18;;;;;;;;;;;13.10;99.90;;;;;;2618090;47;20079;-72
2023/10/07 00:20:51;;;;;;;;;;;13.10;99.90;;;;;;2617690;46;20019;-71
2023/10/07 00:23:22;;;;;;;;;;;13.00;99.90;;;;;;2618223;47;19955;-71
2023/10/07 00:25:55;;;;;;;;;;;13.00;99.90;;;;;;2618416;54;19984;-71
2023/10/07 00:28:31;;;;;;;;;;;13.00;99.90;;;;;;2618864;54;19946;-71
2023/10/07 00:31:05;;;;;;;;;;;13.00;99.90;;;;;;2617707;47;19946;-71
2023/10/07 00:33:50;;;;;;;;;;;13.00;99.90;;;;;;2618491;47;19954;-71
2023/10/07 00:36:41;;;;;;;;;;;13.00;99.90;;;;;;2617722;54;20048;-72
2023/10/07 00:39:20;;;;;;;;;;;13.00;99.90;;;;;;2618083;39;20506;-72
2023/10/07 00:41:57;;;;;;;;;;;12.90;99.90;;;;;;2617677;54;19954;-72
2023/10/07 00:44:32;;;;;;;;;;;12.90;99.90;;;;;;2618394;54;19942;-72
2023/10/07 00:49:54;;;;;;;;;;;12.80;99.90;;;;;;2617011;54;19947;-72
2023/10/07 00:52:32;;;;;;;;;;;12.90;99.90;;;;;;2616978;54;19947;-72
2023/10/07 00:55:17;;;;;;;;;;;12.90;99.90;;;;;;2616901;54;20069;-72
2023/10/07 00:58:03;;;;;;;;;;;12.80;99.90;;;;;;2617048;47;19980;-71
2023/10/07 01:00:42;;;;;;;;;;;12.80;99.90;;;;;;2616899;54;19962;-72
2023/10/07 01:03:32;;;;;;;;;;;12.80;99.90;;;;;;2618031;54;20058;-72
2023/10/07 01:06:14;;;;;;;;;;;12.80;99.90;;;;;;2618442;39;20346;-72
2023/10/07 01:08:50;;;;;;;;;;;12.80;99.90;;;;;;2616984;54;19939;-72
2023/10/07 01:11:29;;;;;;;;;;;12.80;99.90;;;;;;2616712;54;19969;-72
2023/10/07 01:14:05;;;;;;;;;;;12.70;99.90;;;;;;2617735;54;19946;-73
2023/10/07 01:16:40;;;;;;;;;;;12.70;99.90;;;;;;2617370;39;20389;-71
2023/10/07 01:22:12;;;;;;;;;;;12.60;99.90;;;;;;2615669;54;19938;-72
2023/10/07 01:24:49;;;;;;;;;;;12.60;99.90;;;;;;2617040;47;19959;-71
2023/10/07 01:27:22;;;;;;;;;;;12.60;99.90;;;;;;2617583;54;19965;-72
2023/10/07 01:29:50;;;;;;;;;;;12.60;99.90;;;;;;2617659;54;19951;-71
2023/10/07 01:32:20;;;;;;;;;;;12.60;99.90;;;;;;2616822;54;19947;-72
2023/10/07 01:34:53;;;;;;;;;;;12.50;99.90;;;;;;2617694;39;20376;-72
2023/10/07 01:37:25;;;;;;;;;;;12.50;99.90;;;;;;2617441;54;19973;-71
2023/10/07 01:39:57;;;;;;;;;;;12.40;99.90;;;;;;2616821;54;19946;-72
2023/10/07 01:42:37;;;;;;;;;;;12.40;99.90;;;;;;2616927;54;19951;-71
2023/10/07 01:45:20;;;;;;;;;;;12.40;99.90;;;;;;2617424;54;19947;-72
2023/10/07 01:47:53;;;;;;;;;;;12.40;99.90;;;;;;2617817;39;20357;-72
2023/10/07 01:50:24;;;;;;;;;;;12.40;99.90;;;;;;2617691;47;19962;-71
2023/10/07 01:52:56;;;;;;;;;;;12.40;99.90;;;;;;2617666;54;19947;-71
2023/10/07 01:55:29;;;;;;;;;;;12.40;99.90;;;;;;2617475;54;19954;-73
2023/10/07 01:57:59;;;;;;;;;;;12.40;99.90;;;;;;2616969;54;19938;-71
2023/10/07 02:00:43;;;;;;;;;;;12.40;99.90;;;;;;2617399;54;19946;-72
2023/10/07 02:03:16;;;;;;;;;;;12.40;99.90;;;;;;2616772;54;19947;-72
2023/10/07 02:05:49;;;;;;;;;;;12.40;99.90;;;;;;2618054;48;20050;-72
2023/10/07 02:08:21;;;;;;;;;;;12.30;99.90;;;;;;2617576;54;20452;-72
2023/10/07 02:10:56;;;;;;;;;;;12.30;99.90;;;;;;2616821;54;19946;-72
2023/10/07 02:13:27;;;;;;;;;;;12.30;99.90;;;;;;2618025;54;19951;-72
2023/10/07 02:15:58;;;;;;;;;;;12.30;99.90;;;;;;2617561;54;19947;-72
2023/10/07 02:18:29;;;;;;;;;;;12.20;99.90;;;;;;2617740;54;19938;-72
2023/10/07 02:21:08;;;;;;;;;;;12.30;99.90;;;;;;2618563;47;19942;-72
2023/10/07 02:23:40;;;;;;;;;;;12.20;99.90;;;;;;2618875;54;19938;-72
2023/10/07 02:26:18;;;;;;;;;;;12.30;99.90;;;;;;2619233;47;19951;-72
2023/10/07 02:28:50;;;;;;;;;;;12.30;99.90;;;;;;2618810;47;19947;-71
2023/10/07 02:31:21;;;;;;;;;;;12.20;99.90;;;;;;2617489;47;19995;-72
2023/10/07 02:33:52;;;;;;;;;;;12.20;99.90;;;;;;2618718;47;19946;-71
2023/10/07 02:36:31;;;;;;;;;;;12.20;99.90;;;;;;2619025;54;19947;-72
2023/10/07 02:39:05;;;;;;;;;;;12.20;99.90;;;;;;2617638;54;20265;-72
2023/10/07 02:41:37;;;;;;;;;;;12.20;99.90;;;;;;2618458;47;19946;-72
2023/10/07 02:44:15;;;;;;;;;;;12.20;99.90;;;;;;2618355;47;19950;-72
2023/10/07 02:46:52;;;;;;;;;;;12.20;99.90;;;;;;2619021;47;19953;-71
2023/10/07 02:49:25;;;;;;;;;;;12.20;99.90;;;;;;2616863;54;19946;-72
2023/10/07 02:51:58;;;;;;;;;;;12.20;99.90;;;;;;2618456;50;19973;-71
2023/10/07 02:54:32;;;;;;;;;;;12.10;99.90;;;;;;2618537;54;20033;-71
2023/10/07 02:57:39;;;;;;;;;;;12.00;99.90;;;;;;2619297;31;20432;-72
2023/10/07 03:00:28;;;;;;;;;;;11.90;99.90;;;;;;2618446;54;19979;-72
2023/10/07 03:03:10;;;;;;;;;;;11.90;99.90;;;;;;2618361;54;20457;-71
2023/10/07 03:05:43;;;;;;;;;;;11.90;99.90;;;;;;2617779;46;19946;-72
2023/10/07 03:08:19;;;;;;;;;;;12.00;99.90;;;;;;2617687;54;19945;-72
2023/10/07 03:11:03;;;;;;;;;;;11.90;99.90;;;;;;2617979;54;20030;-71
2023/10/07 03:13:37;;;;;;;;;;;11.90;99.90;;;;;;2618703;54;19954;-71
2023/10/07 03:16:28;;;;;;;;;;;11.90;99.90;;;;;;2618526;47;19947;-71
2023/10/07 03:19:06;;;;;;;;;;;11.90;99.90;;;;;;2618018;54;19958;-72
2023/10/07 03:22:08;;;;;;;;;;;11.90;99.90;;;;;;2618172;54;19987;-71
2023/10/07 03:24:54;;;;;;;;;;;11.90;99.90;;;;;;2618321;54;19939;-72
2023/10/07 03:27:26;;;;;;;;;;;11.90;99.90;;;;;;2618284;47;19954;-71
2023/10/07 03:30:15;;;;;;;;;;;11.90;99.90;;;;;;2618051;54;19946;-72
2023/10/07 03:32:57;;;;;;;;;;;11.90;99.90;;;;;;2617442;47;19953;-71
2023/10/07 03:38:10;;;;;;;;;;;11.90;99.90;;;;;;2617308;54;19938;-71
2023/10/07 03:40:48;;;;;;;;;;;11.80;99.90;;;;;;2617764;53;19957;-72
2023/10/07 03:43:19;;;;;;;;;;;11.80;99.90;;;;;;2618655;39;20341;-71
2023/10/07 04:52:24;;;;;;;;;;;11.80;99.90;;;;;;2628396;54;21330;-86
2023/10/07 04:54:58;;;;;;;;;;;12.00;99.90;;;;;;2630534;54;19927;-85
2023/10/07 04:57:44;;;;;;;;;;;12.00;99.90;;;;;;2630462;47;19946;-85
2023/10/07 05:00:28;;;;;;;;;;;12.00;99.90;;;;;;2630570;54;19927;-86
2023/10/07 05:02:57;;;;;;;;;;;12.00;99.90;;;;;;2630490;47;19933;-83
2023/10/07 05:05:29;;;;;;;;;;;12.10;99.90;;;;;;2622760;39;20389;-72
2023/10/07 05:08:08;;;;;;;;;;;12.00;99.90;;;;;;2617204;46;19969;-72
2023/10/07 05:10:39;;;;;;;;;;;12.10;99.90;;;;;;2618539;47;19968;-72
2023/10/07 05:13:08;;;;;;;;;;;12.10;99.90;;;;;;2617768;54;19964;-72
2023/10/07 05:15:41;;;;;;;;;;;12.20;99.90;;;;;;2617457;46;19978;-70
2023/10/07 05:18:12;;;;;;;;;;;12.20;99.90;;;;;;2617412;54;19947;-72
2023/10/07 05:20:42;;;;;;;;;;;12.20;99.90;;;;;;2618179;54;19953;-72
2023/10/07 05:23:17;;;;;;;;;;;12.10;99.90;;;;;;2615538;47;19953;-72
2023/10/07 05:25:50;;;;;;;;;;;12.20;99.90;;;;;;2617381;51;19939;-71
2023/10/07 05:28:21;;;;;;;;;;;12.20;99.90;;;;;;2616866;47;19947;-72
2023/10/07 05:30:57;;;;;;;;;;;12.30;99.90;;;;;;2616883;54;19954;-73
2023/10/07 05:33:28;;;;;;;;;;;12.30;99.90;;;;;;2617534;54;19954;-71
2023/10/07 05:36:03;;;;;;;;;;;12.30;99.90;;;;;;2617672;47;19947;-72
2023/10/07 05:38:36;;;;;;;;;;;12.40;99.90;;;;;;2615892;54;20006;-72
2023/10/07 05:41:06;;;;;;;;;;;12.40;99.90;;;;;;2617450;39;20353;-72
2023/10/07 05:43:36;;;;;;;;;;;12.50;99.90;;;;;;2617083;54;19953;-72
2023/10/07 05:46:06;;;;;;;;;;;12.50;99.90;;;;;;2617486;54;20454;-72
2023/10/07 05:48:37;;;;;;;;;;;12.50;99.90;;;;;;2617064;47;19947;-72
2023/10/07 05:51:07;;;;;;;;;;;12.50;99.90;;;;;;2617463;47;19939;-72
2023/10/07 05:53:40;;;;;;;;;;;12.60;99.90;;;;;;2616749;47;19991;-72
2023/10/07 05:56:10;;;;;;;;;;;12.60;99.90;;;;;;2617785;50;19947;-73
2023/10/07 05:58:40;;;;;;;;;;;12.60;99.90;;;;;;2618971;50;19946;-72
2023/10/07 06:01:11;;;;;;;;;;;12.60;99.90;;;;;;2616619;54;19938;-73
2023/10/07 06:03:42;;;;;;;;;;;12.70;99.90;;;;;;2617621;47;19946;-73
2023/10/07 06:06:14;;;;;;;;;;;12.70;99.90;;;;;;2615389;47;20006;-74
2023/10/07 06:08:48;;;;;;;;;;;12.70;99.90;;;;;;2617314;39;20356;-71
2023/10/07 06:11:23;;;;;;;;;;;12.70;99.90;;;;;;2612125;39;20197;-78
2023/10/07 06:13:52;;;;;;;;;;;12.70;99.90;;;;;;2625030;47;20031;-76
2023/10/07 06:16:22;;;;;;;;;;;12.70;99.90;;;;;;2622208;47;19946;-76
2023/10/07 06:18:53;;;;;;;;;;;12.80;99.90;;;;;;2622477;47;19947;-76
2023/10/07 06:21:31;;;;;;;;;;;12.70;99.90;;;;;;2622208;47;19962;-77
2023/10/07 06:24:07;;;;;;;;;;;12.80;99.90;;;;;;2620449;54;19943;-77
2023/10/07 06:26:37;;;;;;;;;;;12.80;99.90;;;;;;2620955;47;19946;-78
2023/10/07 06:29:18;;;;;;;;;;;12.90;99.90;;;;;;2621053;47;20034;-78
2023/10/07 06:31:54;;;;;;;;;;;12.90;99.90;;;;;;2620735;54;19947;-77
2023/10/07 06:34:32;;;;;;;;;;;12.80;99.90;;;;;;2621364;47;19953;-78
2023/10/07 06:37:02;;;;;;;;;;;12.90;99.90;;;;;;2622290;47;19939;-77
2023/10/07 06:39:35;;;;;;;;;;;12.90;99.90;;;;;;2621503;54;19958;-78
2023/10/07 06:42:06;;;;;;;;;;;12.90;99.90;;;;;;2619989;47;19946;-77
2023/10/07 06:44:36;;;;;;;;;;;13.00;99.90;;;;;;2621256;47;20050;-77
2023/10/07 06:47:10;;;;;;;;;;;13.00;99.90;;;;;;2621489;47;19946;-77
2023/10/07 06:49:40;;;;;;;;;;;13.00;99.90;;;;;;2620259;47;19947;-78
2023/10/07 06:52:12;;;;;;;;;;;13.10;99.90;;;;;;2619156;47;19954;-76
2023/10/07 06:54:47;;;;;;;;;;;13.10;99.90;;;;;;2618699;47;19946;-77
2023/10/07 06:57:35;;;;;;;;;;;13.10;99.90;;;;;;2618469;47;19946;-75
2023/10/07 07:00:11;;;;;;;;;;;13.20;99.90;;;;;;2619972;47;19947;-78
2023/10/07 07:02:53;;;;;;;;;;;13.20;99.90;;;;;;2620877;47;20444;-77
2023/10/07 07:05:24;;;;;;;;;;;13.20;99.90;;;;;;2618178;54;19958;-75
2023/10/07 07:07:56;;;;;;;;;;;13.20;99.90;;;;;;2617537;54;20038;-75
2023/10/07 07:10:31;;;;;;;;;;;13.30;99.90;;;;;;2618939;47;20440;-76
2023/10/07 07:13:12;;;;;;;;;;;13.30;99.90;;;;;;2620973;54;19972;-75
2023/10/07 07:15:45;;;;;;;;;;;13.30;99.90;;;;;;2620873;54;19946;-75
2023/10/07 07:18:25;;;;;;;;;;;13.40;99.90;;;;;;2619726;54;19938;-76
2023/10/07 07:21:00;;;;;;;;;;;13.30;99.90;;;;;;2621057;47;19947;-77
2023/10/07 07:23:40;;;;;;;;;;;14.00;99.90;;;;;;2621094;54;19951;-78
2023/10/07 07:26:12;;;;;;;;;;;13.40;99.90;;;;;;2621143;47;19943;-76
2023/10/07 07:28:45;;;;;;;;;;;13.40;99.90;;;;;;2619869;47;19991;-75
2023/10/07 07:31:18;;;;;;;;;;;13.50;99.90;;;;;;2618990;54;19946;-76
2023/10/07 07:33:50;;;;;;;;;;;13.50;99.90;;;;;;2618961;47;19946;-76
2023/10/07 07:36:37;;;;;;;;;;;13.50;99.90;;;;;;2619454;47;20932;-76
2023/10/07 07:39:10;;;;;;;;;;;13.50;99.90;;;;;;2618934;47;19958;-74
2023/10/07 07:41:55;;;;;;;;;;;13.60;99.90;;;;;;2627227;47;19957;-75
2023/10/07 07:44:34;;;;;;;;;;;13.60;99.90;;;;;;2630484;54;19976;-76
2023/10/07 07:47:05;;;;;;;;;;;13.60;99.90;;;;;;2624039;54;19953;-76
2023/10/07 07:49:41;;;;;;;;;;;13.60;99.90;;;;;;2621539;54;19984;-75
2023/10/07 07:52:11;;;;;;;;;;;13.70;99.90;;;;;;2621687;54;19946;-76
2023/10/07 07:54:41;;;;;;;;;;;13.70;99.90;;;;;;2623782;47;20083;-76
2023/10/07 07:57:16;;;;;;;;;;;13.80;99.90;;;;;;2619309;54;20022;-76
2023/10/07 07:59:46;;;;;;;;;;;14.60;99.90;;;;;;2622981;54;19946;-76
2023/10/07 08:02:24;;;;;;;;;;;13.90;99.90;;;;;;2618788;39;20446;-76
2023/10/07 08:05:02;;;;;;;;;;;13.90;99.90;;;;;;2620152;39;20649;-76
2023/10/07 08:07:33;;;;;;;;;;;13.80;99.90;;;;;;2619860;54;20024;-76
2023/10/07 08:10:03;;;;;;;;;;;13.80;99.90;;;;;;2619868;46;20051;-78
2023/10/07 08:12:54;;;;;;;;;;;13.90;99.90;;;;;;2618543;47;19951;-78
2023/10/07 08:15:52;;;;;;;;;;;13.90;99.90;;;;;;2616994;47;19953;-74
2023/10/07 08:18:28;;;;;;;;;;;14.00;99.90;;;;;;2611344;54;19950;-75
2023/10/07 08:21:06;;;;;;;;;;;14.80;99.90;;;;;;2611598;46;19953;-74
2023/10/07 08:23:51;;;;;;;;;;;14.00;99.90;;;;;;2615800;54;19947;-75
2023/10/07 08:26:27;;;;;;;;;;;14.00;99.90;;;;;;2612899;46;19975;-75
2023/10/07 08:29:03;;;;;;;;;;;14.10;99.90;;;;;;2612215;54;19946;-75
2023/10/07 08:31:43;;;;;;;;;;;14.20;99.90;;;;;;2611720;54;19954;-72
2023/10/07 08:34:15;;;;;;;;;;;14.20;99.90;;;;;;2611781;47;19999;-71
2023/10/07 08:36:47;;;;;;;;;;;14.30;99.90;;;;;;2611503;54;20060;-71
2023/10/07 08:39:26;;;;;;;;;;;14.30;99.90;;;;;;2611408;54;20474;-72
2023/10/07 08:41:58;;;;;;;;;;;14.40;99.90;;;;;;2612209;39;20344;-73
2023/10/07 08:44:31;;;;;;;;;;;14.40;99.90;;;;;;2611546;46;20019;-73
2023/10/07 08:47:11;;;;;;;;;;;14.40;99.90;;;;;;2611403;47;19973;-73
2023/10/07 08:52:19;;;;;;;;;;;14.50;99.90;;;;;;2599351;54;20107;-71
2023/10/07 08:54:50;;;;;;;;;;;14.40;99.90;;;;;;2605907;47;19965;-71
2023/10/07 08:57:22;;;;;;;;;;;14.40;99.90;;;;;;2605860;54;19953;-71
2023/10/07 08:59:59;;;;;;;;;;;14.40;99.90;;;;;;2603046;47;19939;-71
2023/10/07 09:02:30;;;;;;;;;;;14.50;99.90;;;;;;2605837;47;19995;-71
2023/10/07 09:05:05;;;;;;;;;;;14.50;99.90;;;;;;2605083;54;20465;-73
2023/10/07 09:07:37;;;;;;;;;;;14.50;99.90;;;;;;2607004;39;20470;-72
2023/10/07 09:10:13;;;;;;;;;;;14.60;99.90;;;;;;2607295;54;19958;-73
2023/10/07 09:12:46;;;;;;;;;;;14.60;99.90;;;;;;2607285;39;20357;-72
2023/10/07 09:15:25;;;;;;;;;;;14.70;99.90;;;;;;2607499;31;20422;-71
2023/10/07 09:18:03;;;;;;;;;;;14.70;99.90;;;;;;2607017;54;19946;-71
2023/10/07 09:20:35;;;;;;;;;;;14.70;99.90;;;;;;2606932;47;20043;-71
2023/10/07 09:23:15;;;;;;;;;;;14.80;99.90;;;;;;2605476;54;19938;-71
2023/10/07 09:25:46;;;;;;;;;;;14.80;99.90;;;;;;2606827;47;19946;-71
2023/10/07 09:28:18;;;;;;;;;;;14.90;99.90;;;;;;2606054;54;19970;-70
2023/10/07 09:30:51;;;;;;;;;;;14.90;99.90;;;;;;2606340;47;19938;-71
2023/10/07 09:33:21;;;;;;;;;;;15.00;99.90;;;;;;2606930;39;20362;-70
2023/10/07 09:36:22;;;;;;;;;;;14.80;99.90;;;;;;2607960;47;19939;-70
2023/10/07 09:38:48;;;;;;;;;;;15.20;99.90;;;;;;2605972;54;19951;-71
2023/10/07 09:41:32;;;;;;;;;;;15.30;99.90;;;;;;2605277;47;19985;-71
2023/10/07 09:44:01;;;;;;;;;;;15.40;99.90;;;;;;2606631;47;20501;-70
2023/10/07 09:46:40;;;;;;;;;;;15.50;99.90;;;;;;2605457;54;19982;-71
2023/10/07 09:49:14;;;;;;;;;;;15.60;99.90;;;;;;2605759;54;19953;-70
2023/10/07 09:51:44;;;;;;;;;;;15.60;99.90;;;;;;2605294;54;19953;-70
2023/10/07 09:54:22;;;;;;;;;;;15.70;99.90;;;;;;2606271;54;19946;-71
2023/10/07 09:57:06;;;;;;;;;;;15.70;99.90;;;;;;2606115;54;19987;-71
2023/10/07 09:59:40;;;;;;;;;;;15.80;99.90;;;;;;2606264;54;19946;-71
2023/10/07 10:02:25;;;;;;;;;;;15.20;99.90;;;;;;2605355;47;19947;-71
2023/10/07 10:05:05;;;;;;;;;;;15.80;99.90;;;;;;2610982;54;19986;-73
2023/10/07 10:07:44;;;;;;;;;;;15.90;99.90;;;;;;2616705;54;19939;-74
2023/10/07 10:10:15;;;;;;;;;;;16.00;99.90;;;;;;2616318;47;20031;-75
2023/10/07 10:12:56;;;;;;;;;;;16.00;99.90;;;;;;2614890;47;19939;-76
2023/10/07 10:15:55;;;;;;;;;;;16.10;99.90;;;;;;2617212;47;19977;-76
2023/10/07 10:18:36;;;;;;;;;;;16.20;99.90;;;;;;2616948;47;20547;-76
2023/10/07 10:21:09;;;;;;;;;;;16.20;99.90;;;;;;2616525;47;19939;-76
2023/10/07 10:23:41;;;;;;;;;;;16.20;99.90;;;;;;2616977;54;19979;-78
2023/10/07 10:26:20;;;;;;;;;;;16.30;99.90;;;;;;2617762;47;19946;-76
2023/10/07 10:29:15;;;;;;;;;;;16.20;99.90;;;;;;2618181;54;19958;-76
2023/10/07 10:31:52;;;;;;;;;;;16.40;99.90;;;;;;2617075;47;19953;-77
2023/10/07 10:34:26;;;;;;;;;;;16.50;99.90;;;;;;2617275;54;19947;-76
2023/10/07 10:36:57;;;;;;;;;;;16.60;99.90;;;;;;2617990;47;19974;-76
2023/10/07 10:39:31;;;;;;;;;;;16.70;99.90;;;;;;2617121;47;19969;-78
2023/10/07 10:42:14;;;;;;;;;;;16.80;99.90;;;;;;2618390;54;20003;-77
2023/10/07 10:44:46;;;;;;;;;;;16.90;99.90;;;;;;2618976;54;19946;-76
2023/10/07 10:47:20;;;;;;;;;;;17.00;99.90;;;;;;2618085;54;19946;-77
2023/10/07 10:49:55;;;;;;;;;;;17.00;99.90;;;;;;2618464;54;19987;-76
2023/10/07 10:52:26;;;;;;;;;;;17.10;99.90;;;;;;2616764;47;19953;-76
2023/10/07 10:54:57;;;;;;;;;;;17.20;99.90;;;;;;2618104;54;19947;-76
2023/10/07 10:57:26;;;;;;;;;;;17.20;99.90;;;;;;2617366;47;19939;-75
2023/10/07 10:59:56;;;;;;;;;;;17.30;99.90;;;;;;2616111;47;19939;-75
2023/10/07 11:02:26;;;;;;;;;;;17.40;99.90;;;;;;2604350;54;19947;-76
2023/10/07 11:04:59;;;;;;;;;;;17.50;99.90;;;;;;2607813;39;20310;-75
2023/10/07 11:07:30;;;;;;;;;;;17.70;99.90;;;;;;2614652;47;19953;-76
2023/10/07 11:10:00;;;;;;;;;;;17.80;99.90;;;;;;2615581;47;19995;-77
2023/10/07 11:12:32;;;;;;;;;;;18.00;99.90;;;;;;2619785;54;19946;-77
2023/10/07 11:15:12;;;;;;;;;;;18.10;99.90;;;;;;2619406;47;19953;-76
2023/10/07 11:17:43;;;;;;;;;;;18.20;99.90;;;;;;2618148;54;19975;-76
2023/10/07 11:20:19;;;;;;;;;;;18.40;99.90;;;;;;2619057;47;19950;-77
2023/10/07 11:22:50;;;;;;;;;;;18.60;99.90;;;;;;2618162;54;20061;-76
2023/10/07 11:25:20;;;;;;;;;;;18.90;99.90;;;;;;2618735;39;20444;-76
2023/10/07 11:27:49;;;;;;;;;;;19.10;99.90;;;;;;2618149;54;19950;-76
2023/10/07 11:30:21;;;;;;;;;;;19.30;99.90;;;;;;2618249;51;19947;-76
2023/10/07 11:32:51;;;;;;;;;;;19.40;99.90;;;;;;2616899;47;19938;-76
2023/10/07 11:35:30;;;;;;;;;;;19.40;99.90;;;;;;2618953;54;20457;-77
2023/10/07 11:38:02;;;;;;;;;;;19.50;99.90;;;;;;2617149;46;19998;-75
2023/10/07 11:40:33;;;;;;;;;;;19.60;99.90;;;;;;2618507;39;20365;-76
2023/10/07 11:43:08;;;;;;;;;;;19.70;99.90;;;;;;2619781;39;20338;-75
2023/10/07 11:45:39;;;;;;;;;;;19.90;99.90;;;;;;2618300;47;19946;-76
2023/10/07 11:48:11;;;;;;;;;;;19.80;99.90;;;;;;2617227;47;19974;-76
2023/10/07 11:50:46;;;;;;;;;;;19.90;99.90;;;;;;2617228;39;20006;-75
2023/10/07 11:53:19;;;;;;;;;;;19.90;99.90;;;;;;2616376;47;20718;-76
2023/10/07 11:55:49;;;;;;;;;;;19.90;99.90;;;;;;2617084;47;19953;-75
2023/10/07 11:58:19;;;;;;;;;;;20.00;99.90;;;;;;2617750;54;20091;-76
2023/10/07 12:00:48;;;;;;;;;;;20.10;99.90;;;;;;2617774;47;19939;-75
2023/10/07 12:03:18;;;;;;;;;;;20.20;99.90;;;;;;2617453;47;19947;-76
2023/10/07 12:05:50;;;;;;;;;;;20.40;99.90;;;;;;2617504;47;19954;-76
2023/10/07 12:08:23;;;;;;;;;;;20.60;99.90;;;;;;2617302;54;19946;-76
2023/10/07 12:10:56;;;;;;;;;;;20.80;99.90;;;;;;2617583;54;20465;-76
2023/10/07 12:13:28;;;;;;;;;;;21.00;99.90;;;;;;2617929;47;20460;-76
2023/10/07 12:16:00;;;;;;;;;;;21.20;99.90;;;;;;2617961;47;19950;-75
2023/10/07 12:18:48;;;;;;;;;;;21.30;99.90;;;;;;2616793;47;19939;-76
2023/10/07 12:21:40;;;;;;;;;;;21.80;99.90;;;;;;2616532;39;20419;-74
2023/10/07 12:24:19;;;;;;;;;;;21.60;99.90;;;;;;2615851;47;20457;-74
2023/10/07 12:26:50;;;;;;;;;;;21.80;99.90;;;;;;2616895;54;19938;-74
2023/10/07 12:29:20;;;;;;;;;;;21.90;99.90;;;;;;2616723;47;20082;-74
2023/10/07 12:31:50;;;;;;;;;;;22.00;99.90;;;;;;2615949;54;20526;-74
2023/10/07 12:34:20;;;;;;;;;;;22.20;99.90;;;;;;2614720;47;19957;-73
2023/10/07 12:36:53;;;;;;;;;;;22.30;99.90;;;;;;2615399;47;19939;-74
2023/10/07 12:39:23;;;;;;;;;;;22.40;99.90;;;;;;2621914;54;20419;-75
2023/10/07 12:41:54;;;;;;;;;;;22.50;99.90;;;;;;2615090;39;20098;-76
2023/10/07 12:44:24;;;;;;;;;;;22.70;99.90;;;;;;2616141;47;19943;-76
2023/10/07 12:46:55;;;;;;;;;;;22.80;99.90;;;;;;2616140;54;19946;-75
2023/10/07 12:49:45;;;;;;;;;;;22.80;99.90;;;;;;2615974;54;19945;-75
2023/10/07 12:52:51;;;;;;;;;;;22.90;99.90;;;;;;2616582;54;19954;-74
2023/10/07 12:55:40;;;;;;;;;;;23.00;99.90;;;;;;2616176;47;19950;-74
2023/10/07 12:58:15;;;;;;;;;;;23.10;99.90;;;;;;2617734;39;20358;-75
2023/10/07 13:00:45;;;;;;;;;;;23.10;99.90;;;;;;2619396;54;19938;-75
2023/10/07 13:03:17;;;;;;;;;;;23.10;99.90;;;;;;2621633;54;20004;-76
2023/10/07 13:05:48;;;;;;;;;;;23.10;99.90;;;;;;2618033;47;19986;-78
2023/10/07 13:08:24;;;;;;;;;;;23.10;99.90;;;;;;2617699;47;19957;-75
2023/10/07 13:10:56;;;;;;;;;;;23.20;99.90;;;;;;2620032;54;19958;-77
2023/10/07 13:13:35;;;;;;;;;;;23.30;99.90;;;;;;2619730;54;19939;-74
2023/10/07 13:16:10;;;;;;;;;;;23.30;99.90;;;;;;2616733;46;19938;-72
2023/10/07 13:18:41;;;;;;;;;;;23.20;99.90;;;;;;2616385;47;19951;-73
2023/10/07 13:21:13;;;;;;;;;;;23.20;99.90;;;;;;2616532;47;19994;-76
2023/10/07 13:23:46;;;;;;;;;;;23.00;99.90;;;;;;2616933;47;19942;-76
2023/10/07 13:26:18;;;;;;;;;;;22.80;99.90;;;;;;2618279;47;19995;-76
2023/10/07 13:28:48;;;;;;;;;;;22.70;99.90;;;;;;2619344;47;19950;-76
2023/10/07 13:31:19;;;;;;;;;;;22.50;99.90;;;;;;2618182;47;19969;-75
2023/10/07 13:33:52;;;;;;;;;;;22.50;99.90;;;;;;2622006;39;20357;-75
2023/10/07 13:36:25;;;;;;;;;;;22.40;99.90;;;;;;2620885;54;19952;-75
2023/10/07 13:39:01;;;;;;;;;;;22.30;99.90;;;;;;2616742;51;19947;-75
2023/10/07 13:41:31;;;;;;;;;;;22.20;99.90;;;;;;2616951;47;19946;-78
2023/10/07 13:44:09;;;;;;;;;;;22.10;99.90;;;;;;2616562;54;19947;-76
2023/10/07 13:46:40;;;;;;;;;;;22.10;99.90;;;;;;2616818;46;19969;-76
2023/10/07 13:49:11;;;;;;;;;;;22.00;99.90;;;;;;2617371;54;19965;-75
2023/10/07 13:51:43;;;;;;;;;;;22.00;99.90;;;;;;2617471;54;19994;-74
2023/10/07 13:54:38;;;;;;;;;;;21.90;99.90;;;;;;2619621;47;20030;-76
2023/10/07 13:57:18;;;;;;;;;;;21.90;99.90;;;;;;2617225;47;19947;-76
2023/10/07 13:59:49;;;;;;;;;;;21.90;99.90;;;;;;2617031;54;19946;-75
2023/10/07 14:02:19;;;;;;;;;;;21.90;99.90;;;;;;2617749;39;20006;-75
2023/10/07 14:04:52;;;;;;;;;;;21.90;99.90;;;;;;2619463;47;19939;-74
2023/10/07 14:07:23;;;;;;;;;;;21.90;99.90;;;;;;2617397;54;20809;-75
2023/10/07 14:09:55;;;;;;;;;;;21.90;99.90;;;;;;2617308;54;19989;-74
2023/10/07 14:12:26;;;;;;;;;;;22.00;99.90;;;;;;2617067;47;20019;-74
2023/10/07 14:15:03;;;;;;;;;;;22.00;99.90;;;;;;2618471;31;20466;-73
2023/10/07 14:17:33;;;;;;;;;;;22.00;99.90;;;;;;2617399;47;19946;-74
2023/10/07 14:20:04;;;;;;;;;;;22.10;99.90;;;;;;2617695;54;19987;-76
2023/10/07 14:22:33;;;;;;;;;;;22.10;99.90;;;;;;2616734;54;19965;-74
2023/10/07 14:25:06;;;;;;;;;;;22.20;99.90;;;;;;2617868;47;19946;-77
2023/10/07 14:27:37;;;;;;;;;;;22.20;99.90;;;;;;2616816;54;19990;-75
2023/10/07 14:30:10;;;;;;;;;;;22.20;99.90;;;;;;2618105;54;19956;-79
2023/10/07 14:32:40;;;;;;;;;;;22.30;99.90;;;;;;2617048;47;19939;-74
2023/10/07 14:35:11;;;;;;;;;;;22.40;99.90;;;;;;2617160;54;19946;-74
2023/10/07 14:37:42;;;;;;;;;;;22.50;99.90;;;;;;2619826;54;19947;-75
2023/10/07 14:40:17;;;;;;;;;;;22.60;99.90;;;;;;2617532;47;19960;-75
2023/10/07 14:42:50;;;;;;;;;;;23.50;99.90;;;;;;2616413;47;19953;-74
2023/10/07 14:45:21;;;;;;;;;;;25.30;99.90;;;;;;2616880;54;19946;-74
2023/10/07 14:47:51;;;;;;;;;;;27.30;99.90;;;;;;2619094;54;19987;-77
2023/10/07 14:50:23;;;;;;;;;;;28.50;99.90;;;;;;2616902;54;19938;-74
2023/10/07 14:52:53;;;;;;;;;;;29.80;99.90;;;;;;2615371;47;19947;-77
2023/10/07 14:55:25;;;;;;;;;;;31.00;99.90;;;;;;2616509;54;19946;-75
2023/10/07 14:58:00;;;;;;;;;;;31.80;99.90;;;;;;2615306;54;19958;-75
2023/10/07 15:00:30;;;;;;;;;;;32.10;99.90;;;;;;2615859;54;19939;-76
2023/10/07 15:03:01;;;;;;;;;;;32.10;99.90;;;;;;2614839;54;19946;-74
2023/10/07 15:05:33;;;;;;;;;;;31.90;99.90;;;;;;2615877;54;19950;-76
2023/10/07 15:08:03;;;;;;;;;;;31.20;99.90;;;;;;2615842;47;20471;-76
2023/10/07 15:10:42;;;;;;;;;;;30.30;99.90;;;;;;2615814;47;19962;-78
2023/10/07 15:13:13;;;;;;;;;;;29.40;99.90;;;;;;2617382;47;19942;-78
2023/10/07 15:15:45;;;;;;;;;;;28.30;99.90;;;;;;2618974;39;20447;-76
2023/10/07 15:18:17;;;;;;;;;;;27.20;99.90;;;;;;2618189;39;20327;-76
2023/10/07 15:20:47;;;;;;;;;;;27.60;99.90;;;;;;2616816;47;19946;-74
2023/10/07 15:23:17;;;;;;;;;;;27.90;99.90;;;;;;2616900;47;19953;-76
2023/10/07 15:25:50;;;;;;;;;;;28.70;99.90;;;;;;2616445;47;19953;-76
2023/10/07 15:28:19;;;;;;;;;;;29.00;99.90;;;;;;2618536;54;20466;-75
2023/10/07 15:30:49;;;;;;;;;;;28.90;99.90;;;;;;2616922;54;20050;-75
2023/10/07 15:33:22;;;;;;;;;;;28.30;99.90;;;;;;2617362;39;20363;-76
2023/10/07 15:35:55;;;;;;;;;;;27.60;99.90;;;;;;2616957;39;20355;-76
2023/10/07 15:38:25;;;;;;;;;;;26.90;99.90;;;;;;2616984;54;19947;-75
2023/10/07 15:40:59;;;;;;;;;;;26.20;99.90;;;;;;2617841;54;19946;-75
2023/10/07 15:43:29;;;;;;;;;;;25.60;99.90;;;;;;2617031;54;19945;-75
2023/10/07 15:46:04;;;;;;;;;;;25.20;99.90;;;;;;2617437;47;19946;-75
2023/10/07 15:48:35;;;;;;;;;;;24.70;99.90;;;;;;2619223;47;19954;-77
2023/10/07 15:51:05;;;;;;;;;;;24.30;99.90;;;;;;2616750;54;19953;-74
2023/10/07 15:53:37;;;;;;;;;;;24.00;99.90;;;;;;2617415;47;19947;-74
2023/10/07 15:56:10;;;;;;;;;;;23.50;99.90;;;;;;2617453;54;19977;-75
2023/10/07 15:58:41;;;;;;;;;;;23.30;99.90;;;;;;2616818;51;19942;-74
2023/10/07 16:01:11;;;;;;;;;;;23.90;99.90;;;;;;2617388;54;19946;-73
2023/10/07 16:03:42;;;;;;;;;;;22.80;99.90;;;;;;2613663;54;20444;-74
2023/10/07 16:06:14;;;;;;;;;;;22.60;99.90;;;;;;2614383;54;19945;-73
2023/10/07 16:08:46;;;;;;;;;;;22.40;99.90;;;;;;2611585;54;19977;-73
2023/10/07 16:11:21;;;;;;;;;;;22.30;99.90;;;;;;2612768;47;19954;-74
2023/10/07 16:13:52;;;;;;;;;;;22.20;99.90;;;;;;2617834;47;19957;-73
2023/10/07 16:16:33;;;;;;;;;;;22.10;99.90;;;;;;2618691;54;20563;-72